Time;durP1;ratioP1;P1;durP2;ratioP2;P2;SDS_P1;SDS_P2;PMS_P1;PMS_P2;Temp;Humidity;BMP_temperature;BMP_pressure;BME280_temperature;BME280_humidity;BME280_pressure;Samples;Min_cycle;Max_cycle;Signal;HPM_P1;HPM_P2
2023/12/01 00:02:10;;;;;;;45.42;21.35;;;;;;;;;;5013057;28;20024;-65
2023/12/01 00:04:36;;;;;;;48.35;21.23;;;;;;;;;;5011984;28;21269;-65
2023/12/01 00:07:01;;;;;;;45.92;21.55;;;;;;;;;;5031641;28;20047;-65
2023/12/01 00:09:26;;;;;;;52.13;22.35;;;;;;;;;;5052752;28;21465;-65
2023/12/01 00:11:51;;;;;;;47.10;22.30;;;;;;;;;;5052499;28;20021;-65
2023/12/01 00:14:17;;;;;;;49.08;22.42;;;;;;;;;;5053251;28;20108;-65
2023/12/01 00:16:42;;;;;;;37.90;18.52;;;;;;;;;;5057363;28;20116;-65
2023/12/01 00:19:07;;;;;;;43.58;20.90;;;;;;;;;;5064883;28;20090;-65
2023/12/01 00:21:32;;;;;;;37.58;18.83;;;;;;;;;;5060858;28;20025;-65
2023/12/01 00:23:58;;;;;;;39.92;19.90;;;;;;;;;;5057529;28;20040;-65
2023/12/01 00:26:23;;;;;;;43.70;19.88;;;;;;;;;;5062022;28;20017;-65
2023/12/01 00:28:48;;;;;;;36.63;18.75;;;;;;;;;;5053032;28;20387;-65
2023/12/01 00:31:13;;;;;;;43.25;20.35;;;;;;;;;;5053000;28;20025;-65
2023/12/01 00:33:39;;;;;;;48.55;20.60;;;;;;;;;;5050238;28;20108;-65
2023/12/01 00:36:04;;;;;;;43.95;20.52;;;;;;;;;;5053169;28;20044;-65
2023/12/01 00:38:29;;;;;;;45.10;19.63;;;;;;;;;;5052592;28;20066;-65
2023/12/01 00:40:55;;;;;;;43.72;19.85;;;;;;;;;;5066386;28;20568;-65
2023/12/01 00:43:20;;;;;;;45.13;20.25;;;;;;;;;;5056482;28;20531;-65
2023/12/01 00:45:45;;;;;;;42.17;19.63;;;;;;;;;;5053780;28;20558;-65
2023/12/01 00:48:10;;;;;;;44.55;20.50;;;;;;;;;;5053633;28;20104;-65
2023/12/01 00:50:35;;;;;;;44.45;21.45;;;;;;;;;;5024094;28;20027;-65
2023/12/01 00:53:01;;;;;;;49.72;20.55;;;;;;;;;;5020607;28;20898;-65
2023/12/01 00:55:26;;;;;;;46.72;21.15;;;;;;;;;;5008992;28;20847;-65
2023/12/01 00:57:53;;;;;;;41.60;19.00;;;;;;;;;;5022870;28;20078;-65
2023/12/01 01:00:19;;;;;;;42.35;20.75;;;;;;;;;;5011019;28;20021;-65
2023/12/01 01:02:44;;;;;;;41.15;19.65;;;;;;;;;;5017662;28;20773;-65
2023/12/01 01:05:09;;;;;;;44.75;19.52;;;;;;;;;;5017797;28;20933;-65
2023/12/01 01:07:35;;;;;;;41.83;19.02;;;;;;;;;;5016387;28;20892;-65
2023/12/01 01:10:00;;;;;;;43.95;21.08;;;;;;;;;;5018091;28;20137;-65
2023/12/01 01:12:25;;;;;;;42.15;18.25;;;;;;;;;;5027396;28;20032;-64
2023/12/01 01:14:50;;;;;;;46.67;20.30;;;;;;;;;;5014029;28;20057;-65
2023/12/01 01:17:16;;;;;;;46.42;20.38;;;;;;;;;;5015619;28;20130;-65
2023/12/01 01:19:41;;;;;;;46.15;20.20;;;;;;;;;;5019967;28;20056;-65
2023/12/01 01:22:06;;;;;;;47.30;21.67;;;;;;;;;;5015281;28;20067;-65
2023/12/01 01:24:31;;;;;;;47.92;19.13;;;;;;;;;;5018718;28;20281;-64
2023/12/01 01:26:57;;;;;;;42.95;20.17;;;;;;;;;;5026343;28;20029;-65
2023/12/01 01:29:23;;;;;;;38.40;18.73;;;;;;;;;;5054117;28;20426;-65
2023/12/01 01:31:48;;;;;;;40.90;18.70;;;;;;;;;;5052145;28;20029;-64
2023/12/01 01:34:13;;;;;;;35.60;18.70;;;;;;;;;;5051906;28;20024;-65
2023/12/01 01:36:38;;;;;;;37.20;18.80;;;;;;;;;;5013664;28;20039;-65
2023/12/01 01:39:05;;;;;;;43.92;19.00;;;;;;;;;;5017903;28;20028;-65
2023/12/01 01:41:30;;;;;;;42.83;18.85;;;;;;;;;;5048213;28;20028;-65
2023/12/01 01:43:55;;;;;;;45.00;18.95;;;;;;;;;;5007416;28;20021;-64
2023/12/01 01:46:20;;;;;;;42.08;19.17;;;;;;;;;;5014920;28;20028;-65
2023/12/01 01:48:46;;;;;;;39.58;20.17;;;;;;;;;;5034616;28;20950;-65
2023/12/01 01:51:13;;;;;;;39.53;17.70;;;;;;;;;;5051990;28;20029;-64
2023/12/01 01:53:41;;;;;;;34.97;16.85;;;;;;;;;;5051299;28;20025;-64
2023/12/01 01:56:07;;;;;;;36.92;18.95;;;;;;;;;;5051416;28;20021;-65
2023/12/01 01:58:33;;;;;;;41.72;19.70;;;;;;;;;;5051201;28;20063;-64
2023/12/01 02:00:58;;;;;;;44.30;19.95;;;;;;;;;;5051914;28;20033;-65
2023/12/01 02:03:23;;;;;;;40.70;17.15;;;;;;;;;;5051850;28;20491;-65
2023/12/01 02:05:49;;;;;;;38.70;19.45;;;;;;;;;;5062832;28;20387;-65
2023/12/01 02:08:27;;;;;;;40.40;17.80;;;;;;;;;;5057119;28;20020;-64
2023/12/01 02:10:53;;;;;;;38.63;19.73;;;;;;;;;;5063993;28;20470;-65
2023/12/01 02:13:19;;;;;;;42.10;19.77;;;;;;;;;;5054652;28;20023;-65
2023/12/01 02:15:44;;;;;;;45.90;21.52;;;;;;;;;;5056623;28;20108;-65
2023/12/01 02:18:21;;;;;;;48.17;20.38;;;;;;;;;;5051359;28;20025;-65
2023/12/01 02:20:46;;;;;;;45.13;20.38;;;;;;;;;;5051015;28;20422;-65
2023/12/01 02:23:12;;;;;;;45.97;20.42;;;;;;;;;;5057267;28;20029;-65
2023/12/01 02:25:37;;;;;;;45.43;20.53;;;;;;;;;;5055587;28;20033;-65
2023/12/01 02:28:02;;;;;;;42.55;19.77;;;;;;;;;;5051302;28;20264;-65
2023/12/01 02:30:27;;;;;;;46.40;20.05;;;;;;;;;;5050876;28;20033;-65
2023/12/01 02:32:53;;;;;;;53.17;22.10;;;;;;;;;;5058510;28;20486;-65
2023/12/01 02:35:18;;;;;;;48.38;22.10;;;;;;;;;;5057807;28;20380;-65
2023/12/01 02:37:43;;;;;;;45.83;22.73;;;;;;;;;;5054366;28;20352;-65
2023/12/01 02:40:15;;;;;;;47.85;22.00;;;;;;;;;;5057223;28;20036;-65
2023/12/01 02:42:44;;;;;;;58.22;21.98;;;;;;;;;;5054890;28;20029;-64
2023/12/01 02:45:09;;;;;;;41.70;20.52;;;;;;;;;;5056004;28;20044;-65
2023/12/01 02:47:34;;;;;;;42.90;20.85;;;;;;;;;;5040532;28;20524;-65
2023/12/01 02:49:59;;;;;;;40.78;20.38;;;;;;;;;;5054631;28;20381;-65
2023/12/01 02:52:25;;;;;;;43.67;20.95;;;;;;;;;;5054061;28;20044;-65
2023/12/01 02:54:50;;;;;;;40.55;18.20;;;;;;;;;;5061759;28;20068;-63
2023/12/01 02:57:15;;;;;;;39.42;18.85;;;;;;;;;;5053684;28;20047;-65
2023/12/01 02:59:40;;;;;;;52.50;21.07;;;;;;;;;;5054045;28;20406;-64
2023/12/01 03:02:05;;;;;;;40.80;19.10;;;;;;;;;;5065555;28;20627;-65
2023/12/01 03:04:31;;;;;;;52.78;20.30;;;;;;;;;;5065315;28;20787;-65
2023/12/01 03:06:56;;;;;;;39.90;19.70;;;;;;;;;;5057752;28;20013;-64
2023/12/01 03:09:21;;;;;;;40.17;19.40;;;;;;;;;;5062754;28;20039;-65
2023/12/01 03:11:48;;;;;;;42.90;19.60;;;;;;;;;;5065644;28;20641;-65
2023/12/01 03:14:14;;;;;;;40.10;18.67;;;;;;;;;;5054148;28;20047;-64
2023/12/01 03:16:40;;;;;;;44.30;19.27;;;;;;;;;;5057291;28;20100;-65
2023/12/01 03:19:08;;;;;;;45.53;19.08;;;;;;;;;;5062983;28;20017;-65
2023/12/01 03:21:33;;;;;;;44.47;19.20;;;;;;;;;;5053258;28;20025;-65
2023/12/01 03:24:00;;;;;;;43.42;19.92;;;;;;;;;;5056107;28;20104;-65
2023/12/01 03:26:25;;;;;;;45.85;18.75;;;;;;;;;;5060623;28;20029;-65
2023/12/01 03:28:50;;;;;;;40.45;18.05;;;;;;;;;;5053543;28;20071;-64
2023/12/01 03:31:15;;;;;;;46.67;19.58;;;;;;;;;;5053917;28;20079;-64
2023/12/01 03:33:41;;;;;;;44.70;18.10;;;;;;;;;;5053203;28;20021;-65
2023/12/01 03:36:06;;;;;;;39.67;17.73;;;;;;;;;;5062880;28;20017;-65
2023/12/01 03:38:32;;;;;;;45.15;19.48;;;;;;;;;;5061537;28;20032;-64
2023/12/01 03:41:00;;;;;;;42.67;19.35;;;;;;;;;;5054128;28;20032;-65
2023/12/01 03:43:25;;;;;;;41.13;18.45;;;;;;;;;;5053626;28;20032;-65
2023/12/01 03:45:50;;;;;;;44.22;18.58;;;;;;;;;;5053948;28;20357;-65
2023/12/01 03:48:16;;;;;;;51.22;19.02;;;;;;;;;;5053547;28;20037;-64
2023/12/01 03:50:41;;;;;;;48.33;19.58;;;;;;;;;;5053258;28;20024;-64
2023/12/01 03:53:07;;;;;;;51.42;18.58;;;;;;;;;;5057639;28;20020;-64
2023/12/01 03:55:32;;;;;;;43.47;19.70;;;;;;;;;;5055244;28;20039;-64
2023/12/01 03:57:57;;;;;;;42.05;19.30;;;;;;;;;;5053479;28;20035;-65
2023/12/01 04:00:22;;;;;;;47.00;19.45;;;;;;;;;;5053086;28;20084;-64
2023/12/01 04:02:48;;;;;;;46.53;19.80;;;;;;;;;;5056151;28;20490;-64
2023/12/01 04:05:18;;;;;;;45.53;19.25;;;;;;;;;;5058332;28;20454;-64
2023/12/01 04:07:46;;;;;;;46.78;20.38;;;;;;;;;;5052722;28;20039;-64
2023/12/01 04:10:11;;;;;;;45.78;20.33;;;;;;;;;;5068318;28;20103;-64
2023/12/01 04:12:44;;;;;;;52.95;20.00;;;;;;;;;;5057560;28;20456;-64
2023/12/01 04:15:12;;;;;;;51.92;20.70;;;;;;;;;;5053257;28;20047;-64
2023/12/01 04:17:38;;;;;;;52.05;21.80;;;;;;;;;;5052769;28;20372;-64
2023/12/01 04:20:20;;;;;;;58.72;22.50;;;;;;;;;;5052802;28;20028;-65
2023/12/01 04:22:47;;;;;;;61.30;24.63;;;;;;;;;;5052961;28;20032;-65
2023/12/01 04:25:12;;;;;;;59.78;23.25;;;;;;;;;;5057305;28;20035;-65
2023/12/01 04:27:37;;;;;;;50.15;20.48;;;;;;;;;;5053240;28;20159;-65
2023/12/01 04:30:03;;;;;;;45.05;20.60;;;;;;;;;;5053012;28;20028;-64
2023/12/01 04:32:28;;;;;;;58.40;22.63;;;;;;;;;;5064806;28;20021;-65
2023/12/01 04:34:54;;;;;;;58.47;21.70;;;;;;;;;;5053751;28;20099;-64
2023/12/01 04:37:19;;;;;;;55.63;22.50;;;;;;;;;;5052384;28;20667;-64
2023/12/01 04:39:44;;;;;;;56.15;22.75;;;;;;;;;;5055699;28;20045;-64
2023/12/01 04:42:10;;;;;;;53.17;21.10;;;;;;;;;;5054245;28;20033;-65
2023/12/01 04:44:35;;;;;;;47.35;18.70;;;;;;;;;;5053076;28;20434;-65
2023/12/01 04:47:00;;;;;;;47.65;19.35;;;;;;;;;;5052351;28;20023;-65
2023/12/01 04:49:25;;;;;;;39.65;18.55;;;;;;;;;;5052757;28;20482;-66
2023/12/01 04:51:51;;;;;;;45.08;18.92;;;;;;;;;;5064869;28;20078;-66
2023/12/01 04:54:16;;;;;;;43.60;19.80;;;;;;;;;;5054411;28;20051;-65
2023/12/01 04:56:41;;;;;;;41.47;18.23;;;;;;;;;;5052425;28;20017;-65
2023/12/01 04:59:06;;;;;;;49.13;19.88;;;;;;;;;;5056722;28;20025;-65
2023/12/01 05:01:35;;;;;;;52.67;20.10;;;;;;;;;;5055289;28;20009;-64
2023/12/01 05:04:00;;;;;;;49.28;20.15;;;;;;;;;;5059836;28;20060;-64
2023/12/01 05:06:26;;;;;;;42.33;17.50;;;;;;;;;;5052263;28;20067;-64
2023/12/01 05:08:51;;;;;;;43.08;17.48;;;;;;;;;;5056759;28;20032;-64
2023/12/01 05:11:16;;;;;;;52.72;20.98;;;;;;;;;;5065373;28;20021;-64
2023/12/01 05:13:41;;;;;;;49.67;19.13;;;;;;;;;;5052424;28;20020;-64
2023/12/01 05:16:07;;;;;;;49.22;18.85;;;;;;;;;;5051967;28;20476;-64
2023/12/01 05:18:32;;;;;;;44.92;19.90;;;;;;;;;;5051742;28;20025;-64
2023/12/01 05:20:57;;;;;;;44.22;20.50;;;;;;;;;;5054035;28;20038;-64
2023/12/01 05:23:22;;;;;;;51.30;20.80;;;;;;;;;;5052068;28;20082;-64
2023/12/01 05:25:50;;;;;;;60.53;21.00;;;;;;;;;;5057501;28;20095;-64
2023/12/01 05:28:16;;;;;;;49.83;18.98;;;;;;;;;;5052633;28;20252;-64
2023/12/01 05:30:43;;;;;;;52.15;23.30;;;;;;;;;;5051708;28;20024;-64
2023/12/01 05:33:08;;;;;;;49.47;23.02;;;;;;;;;;5051597;28;20099;-65
2023/12/01 05:35:35;;;;;;;48.15;21.20;;;;;;;;;;5052650;28;20483;-64
2023/12/01 05:38:00;;;;;;;53.42;23.25;;;;;;;;;;5051933;28;20025;-65
2023/12/01 05:40:26;;;;;;;50.67;22.55;;;;;;;;;;5049841;28;20163;-64
2023/12/01 05:42:54;;;;;;;50.13;21.85;;;;;;;;;;5050303;28;20043;-64
2023/12/01 05:45:21;;;;;;;50.70;24.67;;;;;;;;;;5052433;28;20021;-64
2023/12/01 05:47:46;;;;;;;59.60;23.80;;;;;;;;;;5051430;28;20029;-65
2023/12/01 05:50:14;;;;;;;47.65;20.15;;;;;;;;;;5052068;28;20471;-65
2023/12/01 05:52:43;;;;;;;51.05;22.63;;;;;;;;;;5053796;28;20083;-65
2023/12/01 05:55:14;;;;;;;49.13;21.40;;;;;;;;;;5051710;28;20025;-64
2023/12/01 05:57:49;;;;;;;53.88;22.65;;;;;;;;;;5051847;28;20029;-65
2023/12/01 06:00:15;;;;;;;45.15;20.33;;;;;;;;;;5051085;28;20356;-64
2023/12/01 06:02:44;;;;;;;52.60;20.95;;;;;;;;;;5051197;28;20040;-64
2023/12/01 06:05:11;;;;;;;40.53;20.20;;;;;;;;;;5050841;28;20028;-65
2023/12/01 06:07:36;;;;;;;50.35;21.63;;;;;;;;;;5051695;28;20042;-64
2023/12/01 06:10:03;;;;;;;47.17;18.83;;;;;;;;;;5053541;28;20029;-65
2023/12/01 06:12:28;;;;;;;44.67;20.05;;;;;;;;;;5066357;28;20545;-65
2023/12/01 06:14:53;;;;;;;47.03;20.83;;;;;;;;;;5053418;28;20096;-65
2023/12/01 06:17:18;;;;;;;50.38;20.08;;;;;;;;;;5058398;28;20388;-65
2023/12/01 06:19:43;;;;;;;45.67;19.90;;;;;;;;;;5055797;28;20372;-65
2023/12/01 06:22:09;;;;;;;46.10;20.73;;;;;;;;;;5052272;28;20384;-65
2023/12/01 06:24:34;;;;;;;44.85;20.80;;;;;;;;;;5055332;28;20371;-65
2023/12/01 06:27:04;;;;;;;48.90;21.02;;;;;;;;;;5053532;28;20111;-65
2023/12/01 06:29:29;;;;;;;36.55;19.10;;;;;;;;;;5050830;28;20025;-64
2023/12/01 06:31:54;;;;;;;36.05;18.85;;;;;;;;;;5050909;28;20374;-64
2023/12/01 06:34:20;;;;;;;45.40;19.85;;;;;;;;;;5056409;28;20025;-65
2023/12/01 06:36:45;;;;;;;35.60;17.70;;;;;;;;;;5051128;28;20021;-65
2023/12/01 06:39:10;;;;;;;40.55;18.42;;;;;;;;;;5054684;28;20040;-64
2023/12/01 06:41:37;;;;;;;45.40;19.10;;;;;;;;;;5054789;28;20016;-64
2023/12/01 06:44:02;;;;;;;44.22;19.27;;;;;;;;;;5051894;28;20033;-65
2023/12/01 06:46:28;;;;;;;39.25;19.13;;;;;;;;;;5050948;28;20079;-65
2023/12/01 06:48:53;;;;;;;47.00;19.08;;;;;;;;;;5058107;28;20092;-65
2023/12/01 06:51:18;;;;;;;44.38;19.95;;;;;;;;;;5050976;28;20025;-65
2023/12/01 06:53:43;;;;;;;47.67;20.60;;;;;;;;;;5051435;28;20025;-65
2023/12/01 06:56:09;;;;;;;41.47;18.25;;;;;;;;;;5050411;28;20029;-65
2023/12/01 06:58:34;;;;;;;41.05;19.20;;;;;;;;;;5050221;28;20392;-65
2023/12/01 07:01:00;;;;;;;41.10;20.05;;;;;;;;;;5050744;28;20036;-65
2023/12/01 07:03:25;;;;;;;37.95;18.85;;;;;;;;;;5063605;28;20045;-65
2023/12/01 07:05:52;;;;;;;45.58;20.60;;;;;;;;;;5051244;28;20520;-65
2023/12/01 07:08:17;;;;;;;47.38;22.67;;;;;;;;;;5053208;28;20147;-64
2023/12/01 07:10:42;;;;;;;45.00;22.20;;;;;;;;;;5061323;28;20115;-64
2023/12/01 07:13:08;;;;;;;45.88;20.60;;;;;;;;;;5017098;28;20847;-65
2023/12/01 07:15:33;;;;;;;50.03;22.60;;;;;;;;;;5025869;28;20094;-65
2023/12/01 07:17:58;;;;;;;49.47;23.73;;;;;;;;;;5024414;28;20016;-64
2023/12/01 07:20:24;;;;;;;51.13;22.95;;;;;;;;;;5022834;28;20031;-65
2023/12/01 07:22:51;;;;;;;46.33;23.30;;;;;;;;;;5021981;28;20083;-65
2023/12/01 07:25:25;;;;;;;48.50;24.67;;;;;;;;;;5042299;28;20099;-65
2023/12/01 07:27:54;;;;;;;47.13;22.90;;;;;;;;;;5058863;28;20029;-65
2023/12/01 07:30:19;;;;;;;50.58;23.40;;;;;;;;;;5061725;28;20493;-65
2023/12/01 07:32:45;;;;;;;52.53;24.45;;;;;;;;;;5043109;28;20033;-65
2023/12/01 07:35:10;;;;;;;50.83;23.17;;;;;;;;;;5055508;28;20127;-65
2023/12/01 07:37:36;;;;;;;47.08;23.45;;;;;;;;;;5055372;28;20056;-65
2023/12/01 07:40:06;;;;;;;48.45;23.67;;;;;;;;;;5053632;28;20020;-65
2023/12/01 07:42:31;;;;;;;50.40;23.42;;;;;;;;;;5052838;28;20048;-65
2023/12/01 07:44:56;;;;;;;48.10;23.55;;;;;;;;;;5057461;28;20020;-65
2023/12/01 07:47:24;;;;;;;52.45;24.95;;;;;;;;;;5057333;28;20463;-65
2023/12/01 07:49:49;;;;;;;45.70;22.55;;;;;;;;;;5055404;28;20013;-65
2023/12/01 07:52:14;;;;;;;50.42;23.23;;;;;;;;;;5059266;28;20025;-65
2023/12/01 07:54:39;;;;;;;44.35;23.27;;;;;;;;;;5053437;28;20108;-65
2023/12/01 07:57:05;;;;;;;50.80;24.37;;;;;;;;;;5053575;28;20036;-65
2023/12/01 07:59:31;;;;;;;45.85;22.17;;;;;;;;;;5053542;28;20295;-65
2023/12/01 08:01:56;;;;;;;47.95;23.80;;;;;;;;;;5053398;28;20033;-65
2023/12/01 08:04:21;;;;;;;47.15;23.45;;;;;;;;;;5053204;28;20383;-65
2023/12/01 08:06:46;;;;;;;53.10;24.30;;;;;;;;;;5052997;28;20377;-65
2023/12/01 08:09:16;;;;;;;42.25;21.95;;;;;;;;;;5061462;28;20028;-65
2023/12/01 08:11:42;;;;;;;48.55;22.52;;;;;;;;;;5064487;28;20045;-65
2023/12/01 08:14:08;;;;;;;44.22;22.80;;;;;;;;;;5053324;28;20603;-65
2023/12/01 08:16:33;;;;;;;48.35;23.42;;;;;;;;;;5053126;28;20033;-65
2023/12/01 08:18:58;;;;;;;46.30;23.25;;;;;;;;;;5065775;28;20112;-65
2023/12/01 08:21:24;;;;;;;43.20;22.15;;;;;;;;;;5053048;28;20104;-65
2023/12/01 08:23:49;;;;;;;43.72;23.25;;;;;;;;;;5059318;28;20071;-65
2023/12/01 08:26:15;;;;;;;50.95;23.00;;;;;;;;;;5053939;28;20033;-66
2023/12/01 08:28:40;;;;;;;44.25;22.42;;;;;;;;;;5052699;28;20415;-66
2023/12/01 08:31:05;;;;;;;40.55;22.23;;;;;;;;;;5026816;28;20196;-65
2023/12/01 08:33:30;;;;;;;50.25;22.75;;;;;;;;;;5052110;28;20025;-65
2023/12/01 08:35:56;;;;;;;41.60;22.42;;;;;;;;;;5052161;28;20017;-65
2023/12/01 08:38:21;;;;;;;45.65;22.08;;;;;;;;;;5014220;28;20021;-65
2023/12/01 08:40:46;;;;;;;45.78;22.70;;;;;;;;;;5024644;28;20082;-65
2023/12/01 08:43:11;;;;;;;51.60;24.90;;;;;;;;;;5018415;28;20028;-65
2023/12/01 08:45:37;;;;;;;46.67;22.40;;;;;;;;;;5034138;28;20032;-65
2023/12/01 08:48:02;;;;;;;44.20;21.83;;;;;;;;;;5052848;28;20484;-65
2023/12/01 08:50:27;;;;;;;49.97;24.50;;;;;;;;;;5057866;28;20364;-65
2023/12/01 08:52:53;;;;;;;43.75;22.30;;;;;;;;;;5055771;28;20107;-65
2023/12/01 08:55:18;;;;;;;47.15;21.17;;;;;;;;;;5051066;28;20032;-65
2023/12/01 08:57:43;;;;;;;57.33;23.15;;;;;;;;;;5034307;28;20456;-65
2023/12/01 09:00:09;;;;;;;40.30;20.85;;;;;;;;;;5017264;28;20127;-66
2023/12/01 09:02:35;;;;;;;40.97;21.15;;;;;;;;;;5022539;28;20020;-66
2023/12/01 09:05:00;;;;;;;42.53;22.50;;;;;;;;;;5015500;28;20840;-66
2023/12/01 09:07:25;;;;;;;44.65;21.77;;;;;;;;;;5033923;28;20032;-65
2023/12/01 09:09:50;;;;;;;41.30;21.75;;;;;;;;;;5057786;28;20044;-66
2023/12/01 09:12:16;;;;;;;42.88;23.10;;;;;;;;;;5059013;28;20074;-66
2023/12/01 09:14:41;;;;;;;40.78;21.65;;;;;;;;;;5050364;28;20128;-66
2023/12/01 09:17:07;;;;;;;47.70;22.55;;;;;;;;;;5051830;28;20056;-64
2023/12/01 09:19:32;;;;;;;43.95;20.67;;;;;;;;;;5051109;28;20102;-65
2023/12/01 09:21:57;;;;;;;42.40;20.77;;;;;;;;;;5051656;28;20033;-64
2023/12/01 09:24:22;;;;;;;47.13;22.98;;;;;;;;;;5050742;28;20025;-63
2023/12/01 09:26:48;;;;;;;47.47;22.60;;;;;;;;;;5052012;28;20470;-65
2023/12/01 09:29:13;;;;;;;42.78;22.13;;;;;;;;;;5056404;28;20473;-64
2023/12/01 09:31:45;;;;;;;43.15;22.40;;;;;;;;;;5062922;28;20097;-65
2023/12/01 09:34:10;;;;;;;45.67;21.25;;;;;;;;;;5054316;28;20459;-65
2023/12/01 09:36:35;;;;;;;49.28;23.30;;;;;;;;;;5052123;28;20032;-64
2023/12/01 09:39:01;;;;;;;42.42;21.92;;;;;;;;;;5051855;28;20066;-63
2023/12/01 09:41:26;;;;;;;46.60;22.10;;;;;;;;;;5051707;28;20036;-63
2023/12/01 09:43:51;;;;;;;42.25;22.48;;;;;;;;;;5050785;28;20079;-65
2023/12/01 09:46:17;;;;;;;39.92;23.05;;;;;;;;;;5051755;28;20025;-65
2023/12/01 09:48:44;;;;;;;39.08;21.38;;;;;;;;;;5031423;28;20033;-64
2023/12/01 09:51:09;;;;;;;39.38;21.83;;;;;;;;;;5012255;28;20157;-64
2023/12/01 09:53:35;;;;;;;40.20;20.63;;;;;;;;;;5024671;28;20025;-64
2023/12/01 09:56:03;;;;;;;36.88;19.48;;;;;;;;;;5049884;28;20036;-66
2023/12/01 09:58:29;;;;;;;38.15;20.40;;;;;;;;;;5051035;28;20032;-65
2023/12/01 10:00:56;;;;;;;41.22;21.17;;;;;;;;;;5058640;28;20025;-64
2023/12/01 10:03:22;;;;;;;35.55;19.42;;;;;;;;;;5050005;28;20044;-65
2023/12/01 10:05:48;;;;;;;37.90;19.00;;;;;;;;;;5052493;28;20033;-65
2023/12/01 10:08:15;;;;;;;37.70;19.45;;;;;;;;;;5060663;28;20028;-65
2023/12/01 10:10:40;;;;;;;34.15;18.33;;;;;;;;;;5059136;28;20216;-66
2023/12/01 10:13:07;;;;;;;34.95;19.08;;;;;;;;;;5051062;28;20149;-66
2023/12/01 10:15:33;;;;;;;33.97;18.17;;;;;;;;;;5050757;28;20052;-65
2023/12/01 10:18:12;;;;;;;38.63;19.00;;;;;;;;;;5051293;28;20040;-66
2023/12/01 10:20:39;;;;;;;38.35;20.88;;;;;;;;;;5055068;28;20451;-66
2023/12/01 10:23:17;;;;;;;34.47;18.90;;;;;;;;;;5052349;28;20490;-65
2023/12/01 10:25:46;;;;;;;32.30;17.27;;;;;;;;;;5054419;28;20078;-65
2023/12/01 10:28:12;;;;;;;35.15;19.52;;;;;;;;;;5051845;28;20025;-65
2023/12/01 10:30:37;;;;;;;30.65;17.58;;;;;;;;;;5051157;28;20035;-65
2023/12/01 10:33:04;;;;;;;37.17;18.67;;;;;;;;;;5055782;28;20086;-66
2023/12/01 10:35:29;;;;;;;31.58;18.08;;;;;;;;;;5056335;28;20028;-65
2023/12/01 10:37:54;;;;;;;28.55;16.33;;;;;;;;;;5051017;28;20020;-64
2023/12/01 10:40:20;;;;;;;34.80;18.58;;;;;;;;;;5050960;28;20028;-65
2023/12/01 10:42:47;;;;;;;35.80;17.75;;;;;;;;;;5051169;28;20029;-65
2023/12/01 10:45:12;;;;;;;31.45;16.85;;;;;;;;;;5051082;28;20032;-65
2023/12/01 10:47:39;;;;;;;38.70;18.38;;;;;;;;;;5051064;28;20025;-65
2023/12/01 10:50:05;;;;;;;30.17;16.48;;;;;;;;;;5050718;28;20550;-65
2023/12/01 10:52:30;;;;;;;32.53;18.33;;;;;;;;;;5050834;28;20071;-65
2023/12/01 10:54:55;;;;;;;34.75;17.73;;;;;;;;;;5050647;28;20029;-65
2023/12/01 10:57:38;;;;;;;31.40;18.42;;;;;;;;;;5058284;28;20029;-65
2023/12/01 11:00:09;;;;;;;32.88;18.08;;;;;;;;;;5061096;28;20025;-64
2023/12/01 11:02:38;;;;;;;32.15;18.67;;;;;;;;;;5059852;28;20067;-65
2023/12/01 11:05:05;;;;;;;31.30;18.23;;;;;;;;;;5059470;28;20025;-64
2023/12/01 11:07:44;;;;;;;30.65;17.80;;;;;;;;;;5065418;28;20510;-64
2023/12/01 11:10:30;;;;;;;32.25;17.95;;;;;;;;;;5063243;28;20047;-64
2023/12/01 11:13:09;;;;;;;32.50;17.75;;;;;;;;;;5054240;28;20025;-65
2023/12/01 11:15:35;;;;;;;34.13;17.05;;;;;;;;;;5053988;28;20033;-65
2023/12/01 11:18:00;;;;;;;37.05;18.02;;;;;;;;;;5056361;28;20037;-64
2023/12/01 11:20:36;;;;;;;35.40;18.30;;;;;;;;;;5061132;28;20067;-63
2023/12/01 11:23:05;;;;;;;35.35;16.75;;;;;;;;;;5053539;28;20036;-63
2023/12/01 11:25:55;;;;;;;29.45;16.58;;;;;;;;;;5054232;28;20029;-64
2023/12/01 11:28:39;;;;;;;32.50;17.48;;;;;;;;;;5043770;28;20060;-64
2023/12/01 11:31:08;;;;;;;27.90;15.80;;;;;;;;;;5061021;28;20104;-63
2023/12/01 11:33:53;;;;;;;25.10;14.75;;;;;;;;;;5061111;28;20438;-64
2023/12/01 11:36:31;;;;;;;28.20;15.40;;;;;;;;;;5061518;28;20041;-63
2023/12/01 11:41:40;;;;;;;26.55;15.40;;;;;;;;;;5053296;28;20037;-64
2023/12/01 11:44:09;;;;;;;29.98;16.83;;;;;;;;;;5053206;28;20048;-64
2023/12/01 11:46:36;;;;;;;33.50;16.63;;;;;;;;;;5052853;28;20104;-65
2023/12/01 11:49:02;;;;;;;26.30;14.50;;;;;;;;;;5061414;28;20368;-63
2023/12/01 11:51:27;;;;;;;24.70;14.40;;;;;;;;;;5057513;28;20037;-64
2023/12/01 11:54:00;;;;;;;30.17;15.57;;;;;;;;;;5059651;28;20392;-64
2023/12/01 11:56:25;;;;;;;29.30;14.32;;;;;;;;;;5041978;28;20421;-65
2023/12/01 11:58:51;;;;;;;26.02;13.98;;;;;;;;;;5053567;28;20135;-64
2023/12/01 12:01:16;;;;;;;23.20;13.18;;;;;;;;;;5053202;28;20029;-64
2023/12/01 12:03:41;;;;;;;23.42;13.85;;;;;;;;;;5057868;28;20047;-65
2023/12/01 12:06:07;;;;;;;21.27;12.55;;;;;;;;;;5066380;28;20430;-64
2023/12/01 12:08:33;;;;;;;28.27;13.43;;;;;;;;;;5054530;28;20144;-63
2023/12/01 12:10:59;;;;;;;19.08;11.40;;;;;;;;;;5061193;28;20171;-63
2023/12/01 12:13:24;;;;;;;25.20;11.50;;;;;;;;;;5042539;28;20040;-63
2023/12/01 12:15:49;;;;;;;14.00;8.40;;;;;;;;;;5024512;28;20114;-63
2023/12/01 12:18:15;;;;;;;14.88;8.45;;;;;;;;;;5008950;28;20052;-64
2023/12/01 12:20:41;;;;;;;12.75;7.13;;;;;;;;;;5028595;28;20036;-65
2023/12/01 12:23:06;;;;;;;14.32;7.35;;;;;;;;;;5019522;28;20930;-64
2023/12/01 12:25:35;;;;;;;10.75;5.97;;;;;;;;;;5028410;28;20882;-63
2023/12/01 12:28:08;;;;;;;9.95;6.07;;;;;;;;;;5036686;28;20021;-65
2023/12/01 12:30:33;;;;;;;13.75;7.20;;;;;;;;;;5030186;28;20036;-64
2023/12/01 12:32:59;;;;;;;14.32;7.07;;;;;;;;;;5036347;28;20154;-64
2023/12/01 12:35:24;;;;;;;11.77;6.65;;;;;;;;;;5053555;28;20475;-65
2023/12/01 12:37:49;;;;;;;13.45;7.50;;;;;;;;;;5061449;28;20390;-64
2023/12/01 12:40:14;;;;;;;15.90;8.02;;;;;;;;;;5055956;28;20021;-64
2023/12/01 12:42:41;;;;;;;17.02;8.52;;;;;;;;;;5059929;28;20355;-66
2023/12/01 12:45:06;;;;;;;15.52;8.55;;;;;;;;;;5019368;28;20021;-63
2023/12/01 12:47:32;;;;;;;16.55;8.68;;;;;;;;;;5038211;28;20395;-64
2023/12/01 12:49:57;;;;;;;14.55;8.45;;;;;;;;;;5056410;28;20028;-64
2023/12/01 12:52:22;;;;;;;16.88;9.77;;;;;;;;;;5056532;28;20028;-63
2023/12/01 12:54:47;;;;;;;21.65;10.73;;;;;;;;;;5058453;28;20068;-64
2023/12/01 12:57:13;;;;;;;17.33;10.13;;;;;;;;;;5043427;28;20028;-67
2023/12/01 12:59:38;;;;;;;19.67;9.98;;;;;;;;;;5057118;28;20098;-64
2023/12/01 13:02:04;;;;;;;19.63;10.57;;;;;;;;;;5053521;28;20020;-62
2023/12/01 13:04:29;;;;;;;20.85;11.50;;;;;;;;;;5058345;28;20025;-62
2023/12/01 13:06:56;;;;;;;19.88;11.25;;;;;;;;;;5056667;28;20023;-63
2023/12/01 13:09:22;;;;;;;22.15;10.88;;;;;;;;;;5066086;28;20025;-65
2023/12/01 13:11:47;;;;;;;20.00;10.77;;;;;;;;;;5063061;28;20029;-63
2023/12/01 13:14:13;;;;;;;20.30;11.45;;;;;;;;;;5054892;28;20025;-62
2023/12/01 13:16:39;;;;;;;22.80;12.95;;;;;;;;;;5058689;28;20040;-62
2023/12/01 13:19:06;;;;;;;20.35;12.82;;;;;;;;;;5052618;28;20021;-64
2023/12/01 13:21:35;;;;;;;22.90;12.63;;;;;;;;;;5052243;28;20025;-63
2023/12/01 13:24:00;;;;;;;19.55;11.52;;;;;;;;;;5052219;28;20040;-63
2023/12/01 13:26:25;;;;;;;23.08;12.45;;;;;;;;;;5052591;28;20025;-64
2023/12/01 13:28:50;;;;;;;22.92;12.32;;;;;;;;;;5050973;28;20120;-63
2023/12/01 13:31:16;;;;;;;20.70;11.95;;;;;;;;;;5052380;28;20024;-64
2023/12/01 13:33:41;;;;;;;24.15;13.48;;;;;;;;;;5062635;28;20078;-64
2023/12/01 13:36:09;;;;;;;23.58;13.30;;;;;;;;;;5051623;28;20032;-64
2023/12/01 13:38:34;;;;;;;24.95;12.60;;;;;;;;;;5063429;28;20056;-66
2023/12/01 13:41:00;;;;;;;23.10;12.80;;;;;;;;;;5051843;28;20063;-65
2023/12/01 13:43:25;;;;;;;21.92;13.50;;;;;;;;;;5056960;28;20028;-64
2023/12/01 13:45:51;;;;;;;21.23;13.25;;;;;;;;;;5053199;28;20476;-64
2023/12/01 13:48:16;;;;;;;24.50;13.13;;;;;;;;;;5056781;28;20551;-65
2023/12/01 13:50:41;;;;;;;22.35;12.13;;;;;;;;;;5051727;28;20468;-64
2023/12/01 13:53:06;;;;;;;25.58;13.07;;;;;;;;;;5056590;28;20025;-62
2023/12/01 13:55:32;;;;;;;22.88;11.52;;;;;;;;;;5053014;28;20013;-64
2023/12/01 13:57:57;;;;;;;24.55;11.90;;;;;;;;;;5061258;28;20521;-64
2023/12/01 14:00:22;;;;;;;20.38;11.68;;;;;;;;;;5061769;28;20449;-62
2023/12/01 14:02:49;;;;;;;19.70;10.85;;;;;;;;;;5055150;28;20047;-64
2023/12/01 14:05:15;;;;;;;21.63;10.57;;;;;;;;;;5053378;28;20147;-64
2023/12/01 14:07:40;;;;;;;16.33;9.60;;;;;;;;;;5064560;28;20107;-64
2023/12/01 14:10:06;;;;;;;21.95;10.98;;;;;;;;;;5062672;28;20032;-65
2023/12/01 14:12:31;;;;;;;16.80;10.57;;;;;;;;;;5057431;28;20036;-63
2023/12/01 14:14:57;;;;;;;18.63;10.60;;;;;;;;;;5075372;28;20027;-63
2023/12/01 14:17:22;;;;;;;17.30;9.70;;;;;;;;;;5051391;28;20036;-63